Contest Falcons Dx Group - HAM PU1NJS

Current Time Inside Cache Tag Helper: 12/3/2022 3:04:52 AM

Contest Falcons Dx Group

www.falconsdx.com

Home Mapa Resultado Certificado

PU1NJS - (CABREUVADX)

JOEL SANGI

GG77WM
volta redonda - BRAZIL - 27275660

OPERATOR: SINGLE-OP
ASSISTED: NON-ASSISTED
BAND: ALL
MODE: SSB
POWER: LOW
STATION: FIXED
TRANSMITTER: ONE

Data Hora Freq Banda Call ExS ExR Dif PT M1 Dist MSG
2021-11-06 2248 3725 80m PU5DUD RJ FAL 0 10 0 704 Km B10 Bonus PU5DUD
2021-11-06 2358 3745 80m PP5TG RJ FAL 0 10 0 704 Km B2 Bonus Chave PP5TG
2021-11-07 0044 3706 80m PU4MMZ RJ FAL 0 10 0 405 Km B10 Bonus PU4MMZ
2021-11-07 0043 3715 80m PY3AA RJ HQ 0 5 0 1090 Km HQ2HQx,
2021-11-06 1901 28435 10m PR7AYE RJ PB 1 2 1 1969 Km B2, (M1-PB-10m)
2021-11-06 1919 28423 10m PR7KG RJ PB 1 2 0 1832 Km B2,
2021-11-06 1936 3720 80m PU2XMY RJ SP 0 2 1 261 Km B2, (M1-SP-80m)
2021-11-06 1948 3715 80m PU1VKG RJ RJ 0 2 0 B2,
2021-11-06 1950 3715 80m PY1FJ RJ RJ 1 2 0 76 Km B2,
2021-11-06 1951 3715 80m PY1XS RJ RJ 0 2 0 1570 Km B2,
2021-11-06 2002 3715 80m PU2USK RJ SP 0 2 0 196 Km B2,
2021-11-06 2005 3715 80m PY2EZL RJ SP 0 2 0 302 Km B2,
2021-11-06 2006 3715 80m PU2NBI RJ SP 0 2 0 360 Km B2,
2021-11-06 2240 3770 80m PP5BLU RJ SC 0 2 1 701 Km B2, (M1-SC-80m)
2021-11-06 2242 3760 80m PY3LX RJ RS 0 2 1 1071 Km B2, (M1-RS-80m)
2021-11-06 2243 3748 80m PP5GW RJ SC 0 2 0 722 Km B2,
2021-11-06 2244 3743 80m PY3PA RJ RS 0 2 0 B2 (NV+5 - PY3PA não enviou log)
2021-11-06 2246 3730 80m PP5CG RJ SC 0 2 0 674 Km B2,
2021-11-06 2249 3722 80m PU2KNM RJ SP 0 2 0 B2,
2021-11-06 2251 3710 80m PY1XK RJ RJ 0 2 0 79 Km B2,
2021-11-06 2253 3706 80m PY2SG RJ SP 0 2 0 359 Km B2,
2021-11-06 2257 3706 80m PY2RIC RJ SP 0 2 0 405 Km B2,
2021-11-06 2258 3706 80m PU2OXB RJ SP 0 2 0 495 Km B2,
2021-11-06 2258 3706 80m PP5WEB RJ SC 0 2 0 703 Km B2,
2021-11-06 2259 3706 80m PU2RND RJ SP 1 2 0 413 Km B2,
2021-11-06 2259 3706 80m PY2SGL RJ SP 0 2 0 344 Km B2,
2021-11-06 2259 3706 80m PU2LFU RJ SP 0 2 0 200 Km B2,
2021-11-06 2301 3706 80m PU2TTB RJ SP 0 2 0 B2 (NV+5 - PU2TTB não enviou log)
2021-11-06 2303 3706 80m PP5IS RJ SC 0 2 0 704 Km B2,
2021-11-06 2303 3706 80m PU2MCS RJ SP 1 2 0 583 Km B2,
2021-11-06 2338 3735 80m PU2YSJ RJ SP 0 2 0 563 Km B2,
2021-11-06 2340 3740 80m PU4FRC RJ MG 0 2 1 200 Km B2, (M1-MG-80m)
2021-11-06 2342 3745 80m PP2CS RJ GO 0 2 1 870 Km B2, (M1-GO-80m)
2021-11-06 2343 3745 80m PU5BOM RJ SC 0 2 0 B2,
2021-11-06 2343 3745 80m PY4XYZ RJ MG 1 2 0 184 Km B2,
2021-11-06 2349 3745 80m PU2RUD RJ SP 0 2 0 456 Km B2,
2021-11-06 2353 3745 80m PU1WTW RJ RJ 0 2 0 76 Km B2,
2021-11-06 2354 3745 80m PU5KHZ RJ SC 0 2 0 698 Km B2,
2021-11-06 2356 3745 80m PU5LMJ RJ SC 0 2 0 713 Km B2,
2021-11-06 2357 3745 80m PU2PNB RJ SP 0 2 0 188 Km B2,
2021-11-07 0004 3745 80m PU5CPM RJ SC 0 2 0 704 Km B2,
2021-11-07 0008 3745 80m PU2ORG RJ SP 0 2 0 182 Km B2,
2021-11-07 0013 3745 80m PU3DCC RJ RS 0 2 0 1057 Km B2,
2021-11-07 0015 3745 80m PU4SGT RJ MG 0 2 0 B2 (NV+5 - PU4SGT não enviou log)
2021-11-07 0021 3745 80m PU1SMJ RJ RJ 0 2 0 B2 (NV+5 - PU1SMJ não enviou log)
2021-11-07 0025 3745 80m PP5RB RJ SC 0 2 0 698 Km B2,
2021-11-07 0026 3745 80m PU5KTZ RJ SC 1 2 0 704 Km B2,
2021-11-07 0040 3730 80m PU3KIT RJ RS 0 2 0 1073 Km B2,
2021-11-06 1844 2841 PR7RBA* RJ PB 0 0 0 Nâo Conf,
2021-11-06 1845 2841 PR7KSA* RJ PB 0 0 0 1832 Km Nâo Conf,
2021-11-06 1950 3715 80m PU4MZ* RJ FAL 0 0 0 PU4MZ não enviou log,
2021-11-06 1952 3715 80m PY2EBD* RJ SP 0 0 0 266 Km Nâo Conf,